Weather at Municipal de Linares Airport

Public forecast

Using degrees Celsius for public forecast. Weather courtesy of forecast.io.

Closest aviation weather report (METAR) to Municipal de Linares Airport

Closest report is Gral. Bernardo O┬┤Higgins Airport, 49.2 nm (91.1 km) SSW. Retrieved 2021/04/20 13:00 UTC (56 minutes ago):

SCCH 201300Z 05012KT CAVOK 14/08 Q1014

Closest aviation forecast (TAF) to Municipal de Linares Airport

Closest forecast is Carriel Sur Airport, 91.4 nm (169.3 km) SW. Retrieved 2021/04/20 12:00 UTC (2 hours ago):

TAF SCIE 201015Z 2012/2112 02015KT 7000 -SHRA BKN015 OVC025 TX15/2018Z TN11/2111Z BECMG 2015/2017 02015G25KT 5000 -RA BKN015 OVC030 BECMG 2020/2022 01020G30KT 8000 -SHRA BKN025 OVC040 BECMG 2101/2103 01013KT 9999 NSW SCT020 BKN030 TEMPO 2106/2112 05006KT 6000 -RA BKN025